sensor_id;sensor_type;location;lat;lon;timestamp;P1;durP1;ratioP1;P2;durP2;ratioP2
31438;SDS011;18062;48.872;9.220;2022-07-23T00:00:21;2.47;;;2.28;;
31438;SDS011;18062;48.872;9.220;2022-07-23T00:02:50;2.55;;;2.35;;
31438;SDS011;18062;48.872;9.220;2022-07-23T00:05:16;2.42;;;2.20;;
31438;SDS011;18062;48.872;9.220;2022-07-23T00:07:42;2.85;;;2.00;;
31438;SDS011;18062;48.872;9.220;2022-07-23T00:10:08;2.00;;;1.80;;
31438;SDS011;18062;48.872;9.220;2022-07-23T00:12:35;3.80;;;1.80;;
31438;SDS011;18062;48.872;9.220;2022-07-23T00:15:01;2.08;;;1.88;;
31438;SDS011;18062;48.872;9.220;2022-07-23T00:17:27;1.85;;;1.75;;
31438;SDS011;18062;48.872;9.220;2022-07-23T00:19:53;1.67;;;1.58;;
31438;SDS011;18062;48.872;9.220;2022-07-23T00:22:19;2.03;;;1.83;;
31438;SDS011;18062;48.872;9.220;2022-07-23T00:24:45;2.17;;;1.98;;
31438;SDS011;18062;48.872;9.220;2022-07-23T00:27:11;2.10;;;1.90;;
31438;SDS011;18062;48.872;9.220;2022-07-23T00:29:37;1.92;;;1.65;;
31438;SDS011;18062;48.872;9.220;2022-07-23T00:32:03;2.05;;;1.88;;
31438;SDS011;18062;48.872;9.220;2022-07-23T00:34:29;1.92;;;1.73;;
31438;SDS011;18062;48.872;9.220;2022-07-23T00:36:56;1.80;;;1.70;;
31438;SDS011;18062;48.872;9.220;2022-07-23T00:39:22;1.52;;;1.42;;
31438;SDS011;18062;48.872;9.220;2022-07-23T00:41:48;2.00;;;1.90;;
31438;SDS011;18062;48.872;9.220;2022-07-23T00:44:18;1.63;;;1.52;;
31438;SDS011;18062;48.872;9.220;2022-07-23T00:47:06;1.48;;;1.38;;
31438;SDS011;18062;48.872;9.220;2022-07-23T00:49:31;1.90;;;1.80;;
31438;SDS011;18062;48.872;9.220;2022-07-23T00:51:57;2.15;;;1.85;;
31438;SDS011;18062;48.872;9.220;2022-07-23T00:54:26;1.92;;;1.77;;
31438;SDS011;18062;48.872;9.220;2022-07-23T00:56:53;2.17;;;1.98;;
31438;SDS011;18062;48.872;9.220;2022-07-23T00:59:19;1.60;;;1.50;;
31438;SDS011;18062;48.872;9.220;2022-07-23T01:01:45;1.70;;;1.60;;
31438;SDS011;18062;48.872;9.220;2022-07-23T01:04:13;1.85;;;1.75;;
31438;SDS011;18062;48.872;9.220;2022-07-23T01:06:40;1.52;;;1.42;;
31438;SDS011;18062;48.872;9.220;2022-07-23T01:09:06;1.80;;;1.70;;
31438;SDS011;18062;48.872;9.220;2022-07-23T01:11:33;1.80;;;1.70;;
31438;SDS011;18062;48.872;9.220;2022-07-23T01:14:07;2.03;;;1.92;;
31438;SDS011;18062;48.872;9.220;2022-07-23T01:16:33;1.70;;;1.60;;
31438;SDS011;18062;48.872;9.220;2022-07-23T01:18:59;1.63;;;1.52;;
31438;SDS011;18062;48.872;9.220;2022-07-23T01:21:25;2.00;;;1.75;;
31438;SDS011;18062;48.872;9.220;2022-07-23T01:23:52;2.35;;;1.98;;
31438;SDS011;18062;48.872;9.220;2022-07-23T01:26:18;2.03;;;1.80;;
31438;SDS011;18062;48.872;9.220;2022-07-23T01:28:44;1.48;;;1.38;;
31438;SDS011;18062;48.872;9.220;2022-07-23T01:31:10;1.73;;;1.63;;
31438;SDS011;18062;48.872;9.220;2022-07-23T01:33:36;2.00;;;1.88;;
31438;SDS011;18062;48.872;9.220;2022-07-23T01:36:02;1.60;;;1.50;;
31438;SDS011;18062;48.872;9.220;2022-07-23T01:38:28;1.85;;;1.70;;
31438;SDS011;18062;48.872;9.220;2022-07-23T01:40:54;1.60;;;1.50;;
31438;SDS011;18062;48.872;9.220;2022-07-23T01:43:20;1.70;;;1.60;;
31438;SDS011;18062;48.872;9.220;2022-07-23T01:45:46;2.15;;;1.70;;
31438;SDS011;18062;48.872;9.220;2022-07-23T01:48:12;1.70;;;1.60;;
31438;SDS011;18062;48.872;9.220;2022-07-23T01:50:38;1.50;;;1.40;;
31438;SDS011;18062;48.872;9.220;2022-07-23T01:53:04;1.70;;;1.60;;
31438;SDS011;18062;48.872;9.220;2022-07-23T01:55:30;1.67;;;1.50;;
31438;SDS011;18062;48.872;9.220;2022-07-23T01:57:56;2.20;;;1.85;;
31438;SDS011;18062;48.872;9.220;2022-07-23T02:00:22;1.70;;;1.52;;
31438;SDS011;18062;48.872;9.220;2022-07-23T02:02:47;1.70;;;1.60;;
31438;SDS011;18062;48.872;9.220;2022-07-23T02:05:13;1.98;;;1.70;;
31438;SDS011;18062;48.872;9.220;2022-07-23T02:07:39;1.95;;;1.80;;
31438;SDS011;18062;48.872;9.220;2022-07-23T02:10:07;2.03;;;1.83;;
31438;SDS011;18062;48.872;9.220;2022-07-23T02:12:33;1.67;;;1.58;;
31438;SDS011;18062;48.872;9.220;2022-07-23T02:14:59;1.73;;;1.63;;
31438;SDS011;18062;48.872;9.220;2022-07-23T02:17:25;1.60;;;1.50;;
31438;SDS011;18062;48.872;9.220;2022-07-23T02:19:51;1.95;;;1.75;;
31438;SDS011;18062;48.872;9.220;2022-07-23T02:22:17;2.50;;;1.67;;
31438;SDS011;18062;48.872;9.220;2022-07-23T02:24:43;1.83;;;1.60;;
31438;SDS011;18062;48.872;9.220;2022-07-23T02:27:09;1.70;;;1.60;;
31438;SDS011;18062;48.872;9.220;2022-07-23T02:29:38;1.90;;;1.70;;
31438;SDS011;18062;48.872;9.220;2022-07-23T02:32:04;1.70;;;1.60;;
31438;SDS011;18062;48.872;9.220;2022-07-23T02:34:30;1.63;;;1.50;;
31438;SDS011;18062;48.872;9.220;2022-07-23T02:36:56;1.60;;;1.50;;
31438;SDS011;18062;48.872;9.220;2022-07-23T02:39:22;1.50;;;1.40;;
31438;SDS011;18062;48.872;9.220;2022-07-23T02:41:48;1.30;;;1.20;;
31438;SDS011;18062;48.872;9.220;2022-07-23T02:44:14;1.43;;;1.33;;
31438;SDS011;18062;48.872;9.220;2022-07-23T02:46:40;1.60;;;1.50;;
31438;SDS011;18062;48.872;9.220;2022-07-23T02:49:06;1.77;;;1.67;;
31438;SDS011;18062;48.872;9.220;2022-07-23T02:51:32;3.50;;;2.00;;
31438;SDS011;18062;48.872;9.220;2022-07-23T02:53:58;1.60;;;1.50;;
31438;SDS011;18062;48.872;9.220;2022-07-23T02:56:24;1.70;;;1.60;;
31438;SDS011;18062;48.872;9.220;2022-07-23T02:58:50;2.63;;;1.60;;
31438;SDS011;18062;48.872;9.220;2022-07-23T03:01:16;1.60;;;1.50;;
31438;SDS011;18062;48.872;9.220;2022-07-23T03:03:42;2.13;;;1.93;;
31438;SDS011;18062;48.872;9.220;2022-07-23T03:06:08;1.60;;;1.50;;
31438;SDS011;18062;48.872;9.220;2022-07-23T03:08:34;1.70;;;1.60;;
31438;SDS011;18062;48.872;9.220;2022-07-23T03:11:00;1.83;;;1.73;;
31438;SDS011;18062;48.872;9.220;2022-07-23T03:13:26;1.67;;;1.53;;
31438;SDS011;18062;48.872;9.220;2022-07-23T03:15:52;1.57;;;1.47;;
31438;SDS011;18062;48.872;9.220;2022-07-23T03:18:18;1.70;;;1.60;;
31438;SDS011;18062;48.872;9.220;2022-07-23T03:20:44;1.80;;;1.63;;
31438;SDS011;18062;48.872;9.220;2022-07-23T03:23:10;1.90;;;1.70;;
31438;SDS011;18062;48.872;9.220;2022-07-23T03:25:36;2.00;;;1.77;;
31438;SDS011;18062;48.872;9.220;2022-07-23T03:28:03;1.57;;;1.47;;
31438;SDS011;18062;48.872;9.220;2022-07-23T03:30:29;2.00;;;1.80;;
31438;SDS011;18062;48.872;9.220;2022-07-23T03:32:55;2.10;;;1.90;;
31438;SDS011;18062;48.872;9.220;2022-07-23T03:35:21;2.33;;;2.13;;
31438;SDS011;18062;48.872;9.220;2022-07-23T03:37:47;1.93;;;1.77;;
31438;SDS011;18062;48.872;9.220;2022-07-23T03:40:13;1.43;;;1.33;;
31438;SDS011;18062;48.872;9.220;2022-07-23T03:42:39;1.57;;;1.47;;
31438;SDS011;18062;48.872;9.220;2022-07-23T03:45:07;1.90;;;1.50;;
31438;SDS011;18062;48.872;9.220;2022-07-23T03:47:33;1.97;;;1.80;;
31438;SDS011;18062;48.872;9.220;2022-07-23T03:49:59;1.60;;;1.50;;
31438;SDS011;18062;48.872;9.220;2022-07-23T03:52:25;1.73;;;1.63;;
31438;SDS011;18062;48.872;9.220;2022-07-23T03:54:51;2.13;;;1.83;;
31438;SDS011;18062;48.872;9.220;2022-07-23T03:57:17;1.90;;;1.60;;
31438;SDS011;18062;48.872;9.220;2022-07-23T03:59:43;1.70;;;1.60;;
31438;SDS011;18062;48.872;9.220;2022-07-23T04:02:09;1.47;;;1.37;;
31438;SDS011;18062;48.872;9.220;2022-07-23T04:04:35;2.43;;;1.60;;
31438;SDS011;18062;48.872;9.220;2022-07-23T04:07:01;1.70;;;1.60;;
31438;SDS011;18062;48.872;9.220;2022-07-23T04:09:27;1.80;;;1.70;;
31438;SDS011;18062;48.872;9.220;2022-07-23T04:11:53;2.00;;;1.80;;
31438;SDS011;18062;48.872;9.220;2022-07-23T04:14:19;1.73;;;1.63;;
31438;SDS011;18062;48.872;9.220;2022-07-23T04:16:45;1.50;;;1.40;;
31438;SDS011;18062;48.872;9.220;2022-07-23T04:19:11;1.83;;;1.47;;
31438;SDS011;18062;48.872;9.220;2022-07-23T04:21:37;1.70;;;1.60;;
31438;SDS011;18062;48.872;9.220;2022-07-23T04:24:04;2.10;;;1.60;;
31438;SDS011;18062;48.872;9.220;2022-07-23T04:26:30;1.50;;;1.40;;
31438;SDS011;18062;48.872;9.220;2022-07-23T04:28:56;1.70;;;1.60;;
31438;SDS011;18062;48.872;9.220;2022-07-23T04:31:22;1.93;;;1.60;;
31438;SDS011;18062;48.872;9.220;2022-07-23T04:33:48;1.87;;;1.77;;
31438;SDS011;18062;48.872;9.220;2022-07-23T04:36:14;1.87;;;1.77;;
31438;SDS011;18062;48.872;9.220;2022-07-23T04:38:40;1.70;;;1.60;;
31438;SDS011;18062;48.872;9.220;2022-07-23T04:41:06;2.33;;;1.67;;
31438;SDS011;18062;48.872;9.220;2022-07-23T04:43:32;2.80;;;2.10;;
31438;SDS011;18062;48.872;9.220;2022-07-23T04:45:58;2.67;;;2.00;;
31438;SDS011;18062;48.872;9.220;2022-07-23T04:48:24;1.80;;;1.70;;
31438;SDS011;18062;48.872;9.220;2022-07-23T04:50:50;2.53;;;1.93;;
31438;SDS011;18062;48.872;9.220;2022-07-23T04:53:16;2.50;;;1.83;;
31438;SDS011;18062;48.872;9.220;2022-07-23T04:55:43;2.30;;;2.10;;
31438;SDS011;18062;48.872;9.220;2022-07-23T04:58:09;1.90;;;1.80;;
31438;SDS011;18062;48.872;9.220;2022-07-23T05:00:35;2.20;;;2.00;;
31438;SDS011;18062;48.872;9.220;2022-07-23T05:03:01;1.80;;;1.70;;
31438;SDS011;18062;48.872;9.220;2022-07-23T05:05:27;1.77;;;1.67;;
31438;SDS011;18062;48.872;9.220;2022-07-23T05:07:53;1.87;;;1.77;;
31438;SDS011;18062;48.872;9.220;2022-07-23T05:10:19;1.90;;;1.80;;
31438;SDS011;18062;48.872;9.220;2022-07-23T05:12:45;1.80;;;1.60;;
31438;SDS011;18062;48.872;9.220;2022-07-23T05:15:11;2.03;;;1.90;;
31438;SDS011;18062;48.872;9.220;2022-07-23T05:17:37;2.00;;;1.80;;
31438;SDS011;18062;48.872;9.220;2022-07-23T05:20:03;1.80;;;1.70;;
31438;SDS011;18062;48.872;9.220;2022-07-23T05:22:29;1.93;;;1.77;;
31438;SDS011;18062;48.872;9.220;2022-07-23T05:24:55;2.30;;;2.10;;
31438;SDS011;18062;48.872;9.220;2022-07-23T05:27:21;1.80;;;1.70;;
31438;SDS011;18062;48.872;9.220;2022-07-23T05:29:47;2.35;;;2.03;;
31438;SDS011;18062;48.872;9.220;2022-07-23T05:32:13;1.65;;;1.55;;
31438;SDS011;18062;48.872;9.220;2022-07-23T05:34:39;1.75;;;1.65;;
31438;SDS011;18062;48.872;9.220;2022-07-23T05:37:05;3.65;;;1.70;;
31438;SDS011;18062;48.872;9.220;2022-07-23T05:39:31;2.10;;;1.90;;
31438;SDS011;18062;48.872;9.220;2022-07-23T05:41:57;2.22;;;1.58;;
31438;SDS011;18062;48.872;9.220;2022-07-23T05:44:23;1.92;;;1.75;;
31438;SDS011;18062;48.872;9.220;2022-07-23T05:46:49;1.90;;;1.80;;
31438;SDS011;18062;48.872;9.220;2022-07-23T05:49:15;2.45;;;2.00;;
31438;SDS011;18062;48.872;9.220;2022-07-23T05:51:41;2.60;;;2.28;;
31438;SDS011;18062;48.872;9.220;2022-07-23T05:54:07;2.25;;;1.88;;
31438;SDS011;18062;48.872;9.220;2022-07-23T05:56:33;1.98;;;1.83;;
31438;SDS011;18062;48.872;9.220;2022-07-23T05:58:59;2.63;;;1.80;;
31438;SDS011;18062;48.872;9.220;2022-07-23T06:01:25;2.50;;;1.80;;
31438;SDS011;18062;48.872;9.220;2022-07-23T06:03:51;2.13;;;1.88;;
31438;SDS011;18062;48.872;9.220;2022-07-23T06:06:18;2.13;;;1.92;;
31438;SDS011;18062;48.872;9.220;2022-07-23T06:08:43;2.35;;;2.15;;
31438;SDS011;18062;48.872;9.220;2022-07-23T06:11:09;2.45;;;2.00;;
31438;SDS011;18062;48.872;9.220;2022-07-23T06:13:36;2.47;;;2.00;;
31438;SDS011;18062;48.872;9.220;2022-07-23T06:16:02;2.20;;;1.92;;
31438;SDS011;18062;48.872;9.220;2022-07-23T06:18:28;2.17;;;1.98;;
31438;SDS011;18062;48.872;9.220;2022-07-23T06:20:54;2.17;;;1.98;;
31438;SDS011;18062;48.872;9.220;2022-07-23T06:23:20;2.38;;;2.03;;
31438;SDS011;18062;48.872;9.220;2022-07-23T06:25:46;1.83;;;1.73;;
31438;SDS011;18062;48.872;9.220;2022-07-23T06:28:12;2.65;;;2.28;;
31438;SDS011;18062;48.872;9.220;2022-07-23T06:30:38;2.22;;;1.88;;
31438;SDS011;18062;48.872;9.220;2022-07-23T06:33:04;2.45;;;2.20;;
31438;SDS011;18062;48.872;9.220;2022-07-23T06:35:30;1.70;;;1.60;;
31438;SDS011;18062;48.872;9.220;2022-07-23T06:37:58;2.17;;;1.98;;
31438;SDS011;18062;48.872;9.220;2022-07-23T06:40:24;2.20;;;2.03;;
31438;SDS011;18062;48.872;9.220;2022-07-23T06:42:50;2.25;;;2.05;;
31438;SDS011;18062;48.872;9.220;2022-07-23T06:45:16;2.30;;;2.10;;
31438;SDS011;18062;48.872;9.220;2022-07-23T06:47:43;2.08;;;1.88;;
31438;SDS011;18062;48.872;9.220;2022-07-23T06:50:09;2.20;;;1.98;;
31438;SDS011;18062;48.872;9.220;2022-07-23T06:52:35;2.38;;;2.10;;
31438;SDS011;18062;48.872;9.220;2022-07-23T06:55:01;2.33;;;2.13;;
31438;SDS011;18062;48.872;9.220;2022-07-23T06:57:27;2.50;;;2.30;;
31438;SDS011;18062;48.872;9.220;2022-07-23T06:59:53;2.03;;;1.85;;
31438;SDS011;18062;48.872;9.220;2022-07-23T07:02:19;2.22;;;2.03;;
31438;SDS011;18062;48.872;9.220;2022-07-23T07:04:45;2.65;;;2.40;;
31438;SDS011;18062;48.872;9.220;2022-07-23T07:07:11;2.42;;;2.15;;
31438;SDS011;18062;48.872;9.220;2022-07-23T07:09:37;3.10;;;1.85;;
31438;SDS011;18062;48.872;9.220;2022-07-23T07:12:03;2.45;;;1.95;;
31438;SDS011;18062;48.872;9.220;2022-07-23T07:14:30;2.45;;;2.10;;
31438;SDS011;18062;48.872;9.220;2022-07-23T07:16:56;2.35;;;2.15;;
31438;SDS011;18062;48.872;9.220;2022-07-23T07:19:22;2.28;;;2.08;;
31438;SDS011;18062;48.872;9.220;2022-07-23T07:21:48;2.42;;;2.00;;
31438;SDS011;18062;48.872;9.220;2022-07-23T07:24:14;2.58;;;2.10;;
31438;SDS011;18062;48.872;9.220;2022-07-23T07:26:40;2.17;;;1.98;;
31438;SDS011;18062;48.872;9.220;2022-07-23T07:29:06;2.83;;;2.13;;
31438;SDS011;18062;48.872;9.220;2022-07-23T07:31:32;2.22;;;2.00;;
31438;SDS011;18062;48.872;9.220;2022-07-23T07:33:58;2.40;;;2.20;;
31438;SDS011;18062;48.872;9.220;2022-07-23T07:36:25;2.28;;;2.08;;
31438;SDS011;18062;48.872;9.220;2022-07-23T07:38:51;3.13;;;2.40;;
31438;SDS011;18062;48.872;9.220;2022-07-23T07:41:17;2.33;;;2.13;;
31438;SDS011;18062;48.872;9.220;2022-07-23T07:43:47;3.77;;;2.33;;
31438;SDS011;18062;48.872;9.220;2022-07-23T07:46:13;2.60;;;2.40;;
31438;SDS011;18062;48.872;9.220;2022-07-23T07:48:39;2.50;;;2.30;;
31438;SDS011;18062;48.872;9.220;2022-07-23T07:51:05;2.42;;;2.22;;
31438;SDS011;18062;48.872;9.220;2022-07-23T07:53:31;3.45;;;2.47;;
31438;SDS011;18062;48.872;9.220;2022-07-23T07:55:57;2.35;;;2.15;;
31438;SDS011;18062;48.872;9.220;2022-07-23T07:58:23;2.50;;;2.30;;
31438;SDS011;18062;48.872;9.220;2022-07-23T08:00:49;1.90;;;1.80;;
31438;SDS011;18062;48.872;9.220;2022-07-23T08:03:16;2.85;;;2.28;;
31438;SDS011;18062;48.872;9.220;2022-07-23T08:05:42;2.53;;;1.85;;
31438;SDS011;18062;48.872;9.220;2022-07-23T08:08:08;2.13;;;1.92;;
31438;SDS011;18062;48.872;9.220;2022-07-23T08:10:39;2.20;;;2.00;;
31438;SDS011;18062;48.872;9.220;2022-07-23T08:13:06;2.30;;;2.10;;
31438;SDS011;18062;48.872;9.220;2022-07-23T08:15:31;2.92;;;2.00;;
31438;SDS011;18062;48.872;9.220;2022-07-23T08:17:58;2.40;;;2.20;;
31438;SDS011;18062;48.872;9.220;2022-07-23T08:20:24;1.90;;;1.80;;
31438;SDS011;18062;48.872;9.220;2022-07-23T08:25:20;2.47;;;2.28;;
31438;SDS011;18062;48.872;9.220;2022-07-23T08:27:46;2.92;;;2.35;;
31438;SDS011;18062;48.872;9.220;2022-07-23T08:30:12;2.25;;;2.05;;
31438;SDS011;18062;48.872;9.220;2022-07-23T08:32:48;2.22;;;2.03;;
31438;SDS011;18062;48.872;9.220;2022-07-23T08:35:14;2.85;;;2.10;;
31438;SDS011;18062;48.872;9.220;2022-07-23T08:37:40;3.08;;;2.22;;
31438;SDS011;18062;48.872;9.220;2022-07-23T08:40:07;3.78;;;2.33;;
31438;SDS011;18062;48.872;9.220;2022-07-23T08:42:33;2.20;;;2.00;;
31438;SDS011;18062;48.872;9.220;2022-07-23T08:45:02;6.25;;;5.63;;
31438;SDS011;18062;48.872;9.220;2022-07-23T08:47:29;3.00;;;2.63;;
31438;SDS011;18062;48.872;9.220;2022-07-23T08:49:56;2.40;;;2.20;;
31438;SDS011;18062;48.872;9.220;2022-07-23T08:52:22;2.45;;;2.25;;
31438;SDS011;18062;48.872;9.220;2022-07-23T08:54:48;2.88;;;2.28;;
31438;SDS011;18062;48.872;9.220;2022-07-23T08:57:14;2.50;;;2.30;;
31438;SDS011;18062;48.872;9.220;2022-07-23T08:59:40;2.17;;;1.92;;
31438;SDS011;18062;48.872;9.220;2022-07-23T09:02:06;2.13;;;1.92;;
31438;SDS011;18062;48.872;9.220;2022-07-23T09:04:33;2.15;;;1.95;;
31438;SDS011;18062;48.872;9.220;2022-07-23T09:06:59;2.20;;;2.10;;
31438;SDS011;18062;48.872;9.220;2022-07-23T09:09:27;2.40;;;1.90;;
31438;SDS011;18062;48.872;9.220;2022-07-23T09:12:05;2.75;;;2.45;;
31438;SDS011;18062;48.872;9.220;2022-07-23T09:14:39;2.40;;;2.17;;
31438;SDS011;18062;48.872;9.220;2022-07-23T09:17:09;2.63;;;2.00;;
31438;SDS011;18062;48.872;9.220;2022-07-23T09:19:35;2.17;;;2.08;;
31438;SDS011;18062;48.872;9.220;2022-07-23T09:25:02;2.38;;;2.17;;
31438;SDS011;18062;48.872;9.220;2022-07-23T09:30:14;2.55;;;2.35;;
31438;SDS011;18062;48.872;9.220;2022-07-23T09:32:40;2.40;;;2.20;;
31438;SDS011;18062;48.872;9.220;2022-07-23T09:35:06;2.03;;;1.90;;
31438;SDS011;18062;48.872;9.220;2022-07-23T09:37:32;3.45;;;2.20;;
31438;SDS011;18062;48.872;9.220;2022-07-23T09:40:05;2.65;;;2.42;;
31438;SDS011;18062;48.872;9.220;2022-07-23T09:42:32;2.22;;;2.10;;
31438;SDS011;18062;48.872;9.220;2022-07-23T09:44:58;1.98;;;1.88;;
31438;SDS011;18062;48.872;9.220;2022-07-23T09:47:25;2.40;;;2.08;;
31438;SDS011;18062;48.872;9.220;2022-07-23T09:52:30;2.53;;;2.33;;
31438;SDS011;18062;48.872;9.220;2022-07-23T09:55:03;2.83;;;2.58;;
31438;SDS011;18062;48.872;9.220;2022-07-23T09:57:29;2.08;;;1.90;;
31438;SDS011;18062;48.872;9.220;2022-07-23T09:59:57;2.55;;;2.35;;
31438;SDS011;18062;48.872;9.220;2022-07-23T10:02:24;2.47;;;2.28;;
31438;SDS011;18062;48.872;9.220;2022-07-23T10:04:51;2.50;;;2.30;;
31438;SDS011;18062;48.872;9.220;2022-07-23T10:07:19;2.42;;;2.22;;
31438;SDS011;18062;48.872;9.220;2022-07-23T10:09:47;2.55;;;2.20;;
31438;SDS011;18062;48.872;9.220;2022-07-23T10:12:15;2.47;;;2.28;;
31438;SDS011;18062;48.872;9.220;2022-07-23T10:14:41;2.33;;;2.13;;
31438;SDS011;18062;48.872;9.220;2022-07-23T10:17:07;2.20;;;2.00;;
31438;SDS011;18062;48.872;9.220;2022-07-23T10:19:34;2.17;;;2.08;;
31438;SDS011;18062;48.872;9.220;2022-07-23T10:22:04;2.10;;;2.00;;
31438;SDS011;18062;48.872;9.220;2022-07-23T10:29:47;2.40;;;2.20;;
31438;SDS011;18062;48.872;9.220;2022-07-23T10:32:17;2.60;;;2.40;;
31438;SDS011;18062;48.872;9.220;2022-07-23T10:34:55;3.95;;;2.35;;
31438;SDS011;18062;48.872;9.220;2022-07-23T10:37:28;2.30;;;2.10;;
31438;SDS011;18062;48.872;9.220;2022-07-23T10:42:38;2.80;;;2.53;;
31438;SDS011;18062;48.872;9.220;2022-07-23T10:47:49;2.53;;;2.33;;
31438;SDS011;18062;48.872;9.220;2022-07-23T10:55:38;2.40;;;2.20;;
31438;SDS011;18062;48.872;9.220;2022-07-23T10:58:05;2.33;;;2.13;;
31438;SDS011;18062;48.872;9.220;2022-07-23T11:00:32;2.30;;;2.10;;
31438;SDS011;18062;48.872;9.220;2022-07-23T11:02:59;2.45;;;2.25;;
31438;SDS011;18062;48.872;9.220;2022-07-23T11:05:26;2.28;;;2.08;;
31438;SDS011;18062;48.872;9.220;2022-07-23T11:10:40;2.10;;;2.00;;
31438;SDS011;18062;48.872;9.220;2022-07-23T11:31:53;2.10;;;2.00;;
31438;SDS011;18062;48.872;9.220;2022-07-23T11:36:58;2.20;;;2.10;;
31438;SDS011;18062;48.872;9.220;2022-07-23T11:39:25;2.15;;;1.95;;
31438;SDS011;18062;48.872;9.220;2022-07-23T11:41:51;2.40;;;2.20;;
31438;SDS011;18062;48.872;9.220;2022-07-23T11:44:27;2.25;;;2.08;;
31438;SDS011;18062;48.872;9.220;2022-07-23T11:46:57;2.53;;;2.08;;
31438;SDS011;18062;48.872;9.220;2022-07-23T11:49:24;2.30;;;2.10;;
31438;SDS011;18062;48.872;9.220;2022-07-23T11:52:03;2.22;;;2.05;;
31438;SDS011;18062;48.872;9.220;2022-07-23T11:54:31;2.28;;;2.10;;
31438;SDS011;18062;48.872;9.220;2022-07-23T11:56:58;2.17;;;2.08;;
31438;SDS011;18062;48.872;9.220;2022-07-23T11:59:24;1.95;;;1.85;;
31438;SDS011;18062;48.872;9.220;2022-07-23T12:01:58;2.00;;;1.90;;
31438;SDS011;18062;48.872;9.220;2022-07-23T12:09:50;2.30;;;2.20;;
31438;SDS011;18062;48.872;9.220;2022-07-23T12:12:16;2.22;;;2.08;;
31438;SDS011;18062;48.872;9.220;2022-07-23T12:17:14;2.35;;;2.20;;
31438;SDS011;18062;48.872;9.220;2022-07-23T12:19:41;2.20;;;2.10;;
31438;SDS011;18062;48.872;9.220;2022-07-23T12:22:07;2.17;;;2.05;;
31438;SDS011;18062;48.872;9.220;2022-07-23T12:24:54;2.25;;;2.05;;
31438;SDS011;18062;48.872;9.220;2022-07-23T12:27:22;2.17;;;2.08;;
31438;SDS011;18062;48.872;9.220;2022-07-23T12:29:48;2.30;;;2.20;;
31438;SDS011;18062;48.872;9.220;2022-07-23T12:32:18;2.50;;;2.30;;
31438;SDS011;18062;48.872;9.220;2022-07-23T12:34:44;2.40;;;2.20;;
31438;SDS011;18062;48.872;9.220;2022-07-23T12:37:30;2.20;;;2.10;;
31438;SDS011;18062;48.872;9.220;2022-07-23T12:39:56;2.63;;;2.42;;
31438;SDS011;18062;48.872;9.220;2022-07-23T12:42:23;2.58;;;2.38;;
31438;SDS011;18062;48.872;9.220;2022-07-23T12:45:05;2.17;;;2.08;;
31438;SDS011;18062;48.872;9.220;2022-07-23T12:47:50;2.63;;;2.42;;
31438;SDS011;18062;48.872;9.220;2022-07-23T12:53:04;2.53;;;2.33;;
31438;SDS011;18062;48.872;9.220;2022-07-23T12:55:30;2.65;;;2.35;;
31438;SDS011;18062;48.872;9.220;2022-07-23T12:58:07;2.88;;;2.65;;
31438;SDS011;18062;48.872;9.220;2022-07-23T13:03:31;2.17;;;2.08;;
31438;SDS011;18062;48.872;9.220;2022-07-23T13:05:58;2.75;;;2.55;;
31438;SDS011;18062;48.872;9.220;2022-07-23T13:08:24;2.70;;;2.30;;
31438;SDS011;18062;48.872;9.220;2022-07-23T13:10:50;2.85;;;2.65;;
31438;SDS011;18062;48.872;9.220;2022-07-23T13:13:20;2.35;;;2.20;;
31438;SDS011;18062;48.872;9.220;2022-07-23T13:15:46;2.70;;;2.50;;
31438;SDS011;18062;48.872;9.220;2022-07-23T13:18:12;2.40;;;2.20;;
31438;SDS011;18062;48.872;9.220;2022-07-23T13:20:38;2.55;;;2.35;;
31438;SDS011;18062;48.872;9.220;2022-07-23T13:23:07;2.60;;;2.40;;
31438;SDS011;18062;48.872;9.220;2022-07-23T13:25:33;2.50;;;2.30;;
31438;SDS011;18062;48.872;9.220;2022-07-23T13:27:59;2.95;;;2.38;;
31438;SDS011;18062;48.872;9.220;2022-07-23T13:30:25;2.72;;;2.53;;
31438;SDS011;18062;48.872;9.220;2022-07-23T13:32:52;3.00;;;2.80;;
31438;SDS011;18062;48.872;9.220;2022-07-23T13:35:18;2.72;;;2.53;;
31438;SDS011;18062;48.872;9.220;2022-07-23T13:37:44;2.78;;;2.58;;
31438;SDS011;18062;48.872;9.220;2022-07-23T13:40:10;2.83;;;2.63;;
31438;SDS011;18062;48.872;9.220;2022-07-23T13:42:36;2.80;;;2.60;;
31438;SDS011;18062;48.872;9.220;2022-07-23T13:45:02;2.75;;;2.55;;
31438;SDS011;18062;48.872;9.220;2022-07-23T13:47:29;2.97;;;2.78;;
31438;SDS011;18062;48.872;9.220;2022-07-23T13:49:55;2.33;;;2.22;;
31438;SDS011;18062;48.872;9.220;2022-07-23T13:52:21;2.63;;;2.42;;
31438;SDS011;18062;48.872;9.220;2022-07-23T13:54:47;2.60;;;2.40;;
31438;SDS011;18062;48.872;9.220;2022-07-23T13:57:13;2.67;;;2.47;;
31438;SDS011;18062;48.872;9.220;2022-07-23T13:59:39;2.60;;;2.42;;
31438;SDS011;18062;48.872;9.220;2022-07-23T14:02:05;2.92;;;2.60;;
31438;SDS011;18062;48.872;9.220;2022-07-23T14:04:31;2.78;;;2.58;;
31438;SDS011;18062;48.872;9.220;2022-07-23T14:06:57;2.72;;;2.53;;
31438;SDS011;18062;48.872;9.220;2022-07-23T14:09:23;2.78;;;2.58;;
31438;SDS011;18062;48.872;9.220;2022-07-23T14:11:49;2.65;;;2.45;;
31438;SDS011;18062;48.872;9.220;2022-07-23T14:14:16;2.67;;;2.47;;
31438;SDS011;18062;48.872;9.220;2022-07-23T14:16:42;2.20;;;2.10;;
31438;SDS011;18062;48.872;9.220;2022-07-23T14:19:08;2.78;;;2.58;;
31438;SDS011;18062;48.872;9.220;2022-07-23T14:21:34;2.53;;;2.33;;
31438;SDS011;18062;48.872;9.220;2022-07-23T14:24:00;2.38;;;2.20;;
31438;SDS011;18062;48.872;9.220;2022-07-23T14:26:26;2.25;;;2.15;;
31438;SDS011;18062;48.872;9.220;2022-07-23T14:28:52;2.55;;;2.38;;
31438;SDS011;18062;48.872;9.220;2022-07-23T14:31:18;2.47;;;2.38;;
31438;SDS011;18062;48.872;9.220;2022-07-23T14:33:44;2.60;;;2.40;;
31438;SDS011;18062;48.872;9.220;2022-07-23T14:36:10;2.50;;;2.30;;
31438;SDS011;18062;48.872;9.220;2022-07-23T14:38:36;2.75;;;2.55;;
31438;SDS011;18062;48.872;9.220;2022-07-23T14:41:02;2.40;;;2.30;;
31438;SDS011;18062;48.872;9.220;2022-07-23T14:43:31;2.65;;;2.45;;
31438;SDS011;18062;48.872;9.220;2022-07-23T14:45:57;2.38;;;2.17;;
31438;SDS011;18062;48.872;9.220;2022-07-23T14:48:23;2.40;;;2.30;;
31438;SDS011;18062;48.872;9.220;2022-07-23T14:50:49;2.67;;;2.47;;
31438;SDS011;18062;48.872;9.220;2022-07-23T14:53:15;2.38;;;2.17;;
31438;SDS011;18062;48.872;9.220;2022-07-23T14:55:41;2.65;;;2.50;;
31438;SDS011;18062;48.872;9.220;2022-07-23T14:58:07;2.50;;;2.40;;
31438;SDS011;18062;48.872;9.220;2022-07-23T15:00:33;2.80;;;2.60;;
31438;SDS011;18062;48.872;9.220;2022-07-23T15:02:59;2.45;;;2.35;;
31438;SDS011;18062;48.872;9.220;2022-07-23T15:05:25;2.70;;;2.50;;
31438;SDS011;18062;48.872;9.220;2022-07-23T15:07:52;2.70;;;2.50;;
31438;SDS011;18062;48.872;9.220;2022-07-23T15:10:19;2.30;;;2.20;;
31438;SDS011;18062;48.872;9.220;2022-07-23T15:12:45;2.75;;;2.55;;
31438;SDS011;18062;48.872;9.220;2022-07-23T15:15:11;2.67;;;2.47;;
31438;SDS011;18062;48.872;9.220;2022-07-23T15:17:38;2.90;;;2.70;;
31438;SDS011;18062;48.872;9.220;2022-07-23T15:20:04;2.80;;;2.60;;
31438;SDS011;18062;48.872;9.220;2022-07-23T15:22:33;2.75;;;2.55;;
31438;SDS011;18062;48.872;9.220;2022-07-23T15:24:59;2.80;;;2.60;;
31438;SDS011;18062;48.872;9.220;2022-07-23T15:27:26;2.83;;;2.63;;
31438;SDS011;18062;48.872;9.220;2022-07-23T15:29:53;2.67;;;2.45;;
31438;SDS011;18062;48.872;9.220;2022-07-23T15:32:19;2.60;;;2.40;;
31438;SDS011;18062;48.872;9.220;2022-07-23T15:34:45;2.80;;;2.60;;
31438;SDS011;18062;48.872;9.220;2022-07-23T15:37:11;2.80;;;2.60;;
31438;SDS011;18062;48.872;9.220;2022-07-23T15:39:37;2.88;;;2.67;;
31438;SDS011;18062;48.872;9.220;2022-07-23T15:42:03;2.92;;;2.72;;
31438;SDS011;18062;48.872;9.220;2022-07-23T15:44:29;3.03;;;2.83;;
31438;SDS011;18062;48.872;9.220;2022-07-23T15:46:55;2.85;;;2.50;;
31438;SDS011;18062;48.872;9.220;2022-07-23T15:49:22;2.65;;;2.45;;